createdAt,value
2024-01-12T00:02:31.407Z,1034.3544220607123
2024-01-12T00:09:11.556Z,1034.2621963797235
2024-01-12T00:12:32.149Z,1034.239754432154
2024-01-12T00:15:53.555Z,1034.2747525275547
2024-01-12T00:19:14.274Z,1034.3161006252458
2024-01-12T00:22:34.903Z,1034.3192061629832
2024-01-12T00:25:56.584Z,1034.3362719897905
2024-01-12T00:29:22.555Z,1034.3199710797685
2024-01-12T00:32:44.094Z,1034.3193652894008
2024-01-12T00:36:04.947Z,1034.3563198238662
2024-01-12T00:42:14.421Z,1034.3657037216487
2024-01-12T00:45:35.212Z,1034.3690767455016
2024-01-12T00:48:55.739Z,1034.356566889339
2024-01-12T00:52:17.430Z,1034.3495179106617
2024-01-12T00:55:38.195Z,1034.3365327674485
2024-01-12T00:58:59.804Z,1034.3053088273662
2024-01-12T01:02:20.515Z,1034.2338430299321
2024-01-12T01:06:54.161Z,1034.2154692891845
2024-01-12T01:10:14.393Z,1034.2439795939467
2024-01-12T01:13:35.081Z,1034.2462884012916
2024-01-12T01:19:56.906Z,1034.252972551618
2024-01-12T01:23:17.590Z,1034.2343504089022
2024-01-12T01:26:38.524Z,1034.2605471053325
2024-01-12T01:29:59.761Z,1034.3279378919779
2024-01-12T01:33:20.115Z,1034.3746653170463
2024-01-12T01:36:40.937Z,1034.3510523459452
2024-01-12T01:40:01.884Z,1034.3465810962784
2024-01-12T01:48:46.221Z,1034.3593857481874
2024-01-12T01:52:06.657Z,1034.3654892454585
2024-01-12T01:55:27.467Z,1034.3739932412338
2024-01-12T02:01:54.135Z,1034.4098757423499
2024-01-12T02:05:14.828Z,1034.36351504159
2024-01-12T02:10:24.894Z,1034.3375417166465
2024-01-12T02:13:46.225Z,1034.2766169672805
2024-01-12T02:18:08.524Z,1034.188873254646
2024-01-12T02:21:28.956Z,1034.1395808138461
2024-01-12T02:24:50.280Z,1034.1007310883945
2024-01-12T02:28:10.675Z,1034.0189849138665
2024-01-12T02:31:31.787Z,1034.0021820875643
2024-01-12T02:34:54.230Z,1034.0054381533453
2024-01-12T02:38:14.340Z,1034.033022540875
2024-01-12T02:41:34.409Z,1034.0646066164047
2024-01-12T02:44:56.682Z,1034.06512045454
2024-01-12T02:48:17.106Z,1033.9639540934286
2024-01-12T02:51:37.135Z,1033.8642654248001
2024-01-12T02:54:58.239Z,1033.8432472220704
2024-01-12T02:58:18.538Z,1033.7845489521042
2024-01-12T03:01:38.752Z,1033.7606385472666
2024-01-12T03:08:43.638Z,1033.7977248873317
2024-01-12T03:12:04.458Z,1033.8032899634877
2024-01-12T03:18:09.840Z,1033.7523389997625
2024-01-12T03:21:30.377Z,1033.707227416379
2024-01-12T03:24:50.872Z,1033.6662894725462
2024-01-12T03:28:24.968Z,1033.6559048540305
2024-01-12T03:31:46.305Z,1033.6555485036383
2024-01-12T03:35:06.585Z,1033.6261881857322
2024-01-12T03:38:26.694Z,1033.5769309419043
2024-01-12T03:41:47.300Z,1033.553471995059
2024-01-12T03:45:07.930Z,1033.5162768281425
2024-01-12T03:48:28.962Z,1033.5443062357285
2024-01-12T03:51:50.318Z,1033.5348839564483
2024-01-12T03:55:10.494Z,1033.586306956173
2024-01-12T03:58:31.501Z,1033.5823092555174
2024-01-12T04:01:52.126Z,1033.5284349269598
2024-01-12T04:05:12.920Z,1033.463439285047
2024-01-12T04:08:33.291Z,1033.39810280311
2024-01-12T04:11:54.478Z,1033.3853451179384
2024-01-12T04:17:22.593Z,1033.3933838668518
2024-01-12T04:20:43.767Z,1033.4002653784019
2024-01-12T04:24:04.409Z,1033.4304817817251
2024-01-12T04:27:25.087Z,1033.4574796501665
2024-01-12T04:31:20.826Z,1033.4429620288602
2024-01-12T04:34:41.462Z,1033.4093019413335
2024-01-12T04:38:01.902Z,1033.3370963368627
2024-01-12T04:41:22.591Z,1033.2724094719365
2024-01-12T04:44:43.796Z,1033.2024911136923
2024-01-12T04:50:55.838Z,1033.0767154621667
2024-01-12T04:54:15.982Z,1033.0085728093343
2024-01-12T04:57:36.393Z,1032.92588393216
2024-01-12T05:00:57.225Z,1032.968720072834
2024-01-12T05:04:17.952Z,1032.8974456700023
2024-01-12T05:09:44.344Z,1032.8376053536506
2024-01-12T05:13:04.968Z,1032.835616127151
2024-01-12T05:16:26.415Z,1032.9050017087843
2024-01-12T05:19:46.652Z,1032.9568908923557
2024-01-12T05:23:08.104Z,1032.922787049383
2024-01-12T05:26:28.990Z,1032.9232849086188
2024-01-12T05:29:50.952Z,1032.9302839134118
2024-01-12T05:33:11.763Z,1032.9269758792873
2024-01-12T05:37:55.381Z,1032.9495986784466
2024-01-12T05:41:15.828Z,1033.0141959585353
2024-01-12T05:44:36.827Z,1033.076166451215
2024-01-12T05:47:58.259Z,1033.0772025976878
2024-01-12T05:51:19.209Z,1033.1660241188983
2024-01-12T05:54:40.129Z,1033.1595035848293
2024-01-12T05:58:00.775Z,1033.1696621108392
2024-01-12T06:01:21.619Z,1033.2038792616727
2024-01-12T06:04:42.057Z,1033.1578466105752
2024-01-12T06:08:02.433Z,1033.117573801961
2024-01-12T06:11:22.765Z,1033.137575390778
2024-01-12T06:14:43.486Z,1033.1204435348136
2024-01-12T06:18:04.115Z,1033.095762071298
2024-01-12T06:22:49.417Z,1033.1299679460142
2024-01-12T06:26:09.106Z,1033.1380527150054
2024-01-12T06:29:29.090Z,1033.122009370996
2024-01-12T06:34:04.945Z,1033.075603732815
2024-01-12T06:37:25.545Z,1032.9998220087364
2024-01-12T06:42:41.360Z,1033.0406718589177
2024-01-12T06:46:02.252Z,1033.0609693225201
2024-01-12T06:49:22.239Z,1033.01238100514
2024-01-12T06:52:43.453Z,1032.9710677569547
2024-01-12T06:56:03.537Z,1032.9365101751073
2024-01-12T07:01:18.533Z,1032.9710885707234
2024-01-12T07:04:39.173Z,1033.0117259996493
2024-01-12T07:08:00.437Z,1033.08327831747
2024-01-12T07:14:35.768Z,1032.8917682310305
2024-01-12T07:17:57.264Z,1032.948540989875
2024-01-12T07:21:18.256Z,1032.96788832018
2024-01-12T07:24:38.960Z,1032.9003322983426
2024-01-12T07:27:59.755Z,1032.846701576167
2024-01-12T07:31:20.568Z,1032.722350452038
2024-01-12T07:34:41.837Z,1032.671717400906
2024-01-12T07:38:01.971Z,1032.6070880037075
2024-01-12T07:41:22.609Z,1032.6334451712182
2024-01-12T07:44:43.265Z,1032.5658227195622
2024-01-12T07:48:04.129Z,1032.5460333590213
2024-01-12T07:51:24.251Z,1032.5652644713443
2024-01-12T07:57:34.634Z,1032.5770223512422
2024-01-12T08:00:56.061Z,1032.5383553828112
2024-01-12T08:05:39.164Z,1032.6058570285725
2024-01-12T08:09:00.196Z,1032.6045003051474
2024-01-12T08:15:25.643Z,1032.4844709323506
2024-01-12T08:18:46.865Z,1032.4477466167843
2024-01-12T08:22:13.299Z,1032.4554852333947
2024-01-12T08:26:02.605Z,1032.4770968591597
2024-01-12T08:29:23.912Z,1032.420486573738
2024-01-12T08:32:45.826Z,1032.3064226950205
2024-01-12T08:36:06.066Z,1032.172807911833
2024-01-12T08:39:26.498Z,1032.136407751932
2024-01-12T08:42:47.734Z,1032.1735779972146
2024-01-12T08:46:08.309Z,1032.174166141873
2024-01-12T08:49:29.344Z,1032.0847267298882
2024-01-12T08:52:51.382Z,1032.0414211609664
2024-01-12T08:56:12.603Z,1031.979125202951
2024-01-12T08:59:35.087Z,1031.9363434485576
2024-01-12T09:02:54.853Z,1031.9223579588902
2024-01-12T09:06:16.112Z,1031.9870605544468
2024-01-12T09:09:37.053Z,1032.0110200222387
2024-01-12T09:12:58.044Z,1032.0441068578516
2024-01-12T09:16:18.587Z,1031.9513702784711
2024-01-12T09:22:33.934Z,1031.8103166678557
2024-01-12T09:25:55.624Z,1031.7971299613089
2024-01-12T09:29:17.135Z,1031.862054113912
2024-01-12T09:32:41.996Z,1031.865010644352
2024-01-12T09:36:06.499Z,1031.8954199507286
2024-01-12T09:39:28.127Z,1031.8416652818921
2024-01-12T09:42:54.487Z,1031.8160556394744
2024-01-12T09:46:14.323Z,1031.7946487937352
2024-01-12T09:49:34.366Z,1031.801203680447
2024-01-12T09:52:55.530Z,1031.7930732031261
2024-01-12T09:58:44.356Z,1031.7462424741786
2024-01-12T10:02:06.247Z,1031.7323094912622
2024-01-12T10:05:26.819Z,1031.7570720790723
2024-01-12T10:11:21.584Z,1031.7371514321028
2024-01-12T10:14:42.453Z,1031.7569957222997
2024-01-12T10:18:02.669Z,1031.718146220098
2024-01-12T10:21:24.181Z,1031.7350528300524
2024-01-12T10:24:45.101Z,1031.7013342066298
2024-01-12T10:28:05.486Z,1031.7370744008158
2024-01-12T10:31:26.603Z,1031.7690534465175
2024-01-12T10:34:47.854Z,1031.7166279488454
2024-01-12T10:38:08.104Z,1031.6269456687269
2024-01-12T10:41:28.941Z,1031.621775020432
2024-01-12T10:44:49.420Z,1031.6229013779855
2024-01-12T10:48:10.200Z,1031.7413264077948
2024-01-12T10:53:37.985Z,1031.702666202295
2024-01-12T10:58:20.110Z,1031.562836348893
2024-01-12T11:01:41.587Z,1031.4952222181355
2024-01-12T11:05:02.857Z,1031.4757821624032
2024-01-12T11:08:23.532Z,1031.3830187224064
2024-01-12T11:11:44.410Z,1031.3418086781123
2024-01-12T11:15:04.853Z,1031.3638618885227
2024-01-12T11:18:25.478Z,1031.3542049093826
2024-01-12T11:24:30.510Z,1031.1819599701496
2024-01-12T11:27:51.520Z,1031.1043847597605
2024-01-12T11:31:12.415Z,1031.0623642800695
2024-01-12T11:37:25.368Z,1031.0068872178226
2024-01-12T11:40:46.398Z,1030.9738699931822
2024-01-12T11:44:06.678Z,1030.916083298804
2024-01-12T11:47:27.327Z,1030.795973979034
2024-01-12T11:50:47.892Z,1030.7324781378688
2024-01-12T11:54:08.056Z,1030.7041824242997
2024-01-12T11:57:28.482Z,1030.7316779173009
2024-01-12T12:00:49.506Z,1030.731042585405
2024-01-12T12:04:10.692Z,1030.72319556071
2024-01-12T12:07:31.562Z,1030.6892199531032
2024-01-12T12:10:52.741Z,1030.6248064772628
2024-01-12T12:14:12.810Z,1030.581266291019
2024-01-12T12:20:48.291Z,1030.4832769156233
2024-01-12T12:24:12.349Z,1030.4394816021943
2024-01-12T12:27:33.469Z,1030.4108026409656
2024-01-12T12:32:08.820Z,1030.4077916065348
2024-01-12T12:35:29.682Z,1030.4239466630038
2024-01-12T12:38:51.076Z,1030.4012205888616
2024-01-12T12:45:48.544Z,1030.369484146232
2024-01-12T12:49:09.509Z,1030.3019549304693
2024-01-12T12:52:30.031Z,1030.2170602673575
2024-01-12T12:55:51.260Z,1030.1494979558977
2024-01-12T12:59:12.158Z,1030.128937077292
2024-01-12T13:02:32.559Z,1030.122289911254
2024-01-12T13:05:53.690Z,1030.160956497434
2024-01-12T13:09:13.658Z,1030.1616430898355
2024-01-12T13:14:54.924Z,1030.0597062929862
2024-01-12T13:18:15.369Z,1030.0061701266757
2024-01-12T13:21:35.935Z,1029.9580428726986
2024-01-12T13:24:57.467Z,1029.9642405522807
2024-01-12T13:28:17.869Z,1029.938384848448
2024-01-12T13:31:39.133Z,1029.86240222677
2024-01-12T13:34:59.895Z,1029.8769413558666
2024-01-12T13:41:33.029Z,1029.8254015278633
2024-01-12T13:44:53.862Z,1029.804787868913
2024-01-12T13:50:26.788Z,1029.8069788690582
2024-01-12T13:53:49.262Z,1029.78526639294
2024-01-12T13:57:10.351Z,1029.7390081491
2024-01-12T14:00:30.856Z,1029.7374059308668
2024-01-12T14:03:52.067Z,1029.740172448544
2024-01-12T14:07:12.925Z,1029.7120333898108
2024-01-12T14:11:57.607Z,1029.7006250142158
2024-01-12T14:15:17.689Z,1029.7436515357895
2024-01-12T14:18:38.587Z,1029.7516466869602
2024-01-12T14:25:12.377Z,1029.7064703019935
2024-01-12T14:28:35.547Z,1029.6357987196136
2024-01-12T14:34:42.996Z,1029.5506642326914
2024-01-12T14:38:03.165Z,1029.5058867280277
2024-01-12T14:45:04.568Z,1029.5240015433956
2024-01-12T14:51:16.293Z,1029.5269846551957
2024-01-12T14:54:37.877Z,1029.4914360999715
2024-01-12T15:00:11.536Z,1029.4465819601132
2024-01-12T15:03:32.448Z,1029.435512937012
2024-01-12T15:06:53.209Z,1029.427849612252
2024-01-12T15:10:13.199Z,1029.4427722634532
2024-01-12T15:13:33.839Z,1029.4422400190333
2024-01-12T15:16:54.904Z,1029.4673543458175
2024-01-12T15:20:15.222Z,1029.487292110927
2024-01-12T15:23:35.550Z,1029.455530958964
2024-01-12T15:27:01.413Z,1029.3981103298722
2024-01-12T15:30:21.692Z,1029.4571535229536
2024-01-12T15:33:42.515Z,1029.529989660985
2024-01-12T15:37:02.917Z,1029.5043770700104
2024-01-12T15:40:23.525Z,1029.4064310187805
2024-01-12T15:43:43.699Z,1029.3444251876147
2024-01-12T15:47:04.407Z,1029.2920132407723
2024-01-12T15:50:24.930Z,1029.2777633607855
2024-01-12T15:53:45.626Z,1029.3171852519408
2024-01-12T15:57:07.401Z,1029.3645247411423
2024-01-12T16:00:28.049Z,1029.37124849903
2024-01-12T16:03:48.775Z,1029.327087212383
2024-01-12T16:07:09.309Z,1029.3628121046388
2024-01-12T16:10:29.630Z,1029.4148392569812
2024-01-12T16:13:50.949Z,1029.399662300704
2024-01-12T16:17:11.245Z,1029.3834560810246
2024-01-12T16:20:31.456Z,1029.3811849615336
2024-01-12T16:23:52.006Z,1029.3391406053731
2024-01-12T16:27:12.503Z,1029.2816797358607
2024-01-12T16:30:32.782Z,1029.284846899202
2024-01-12T16:33:53.745Z,1029.2271033106276
2024-01-12T16:37:14.834Z,1029.2338382035928
2024-01-12T16:40:35.118Z,1029.1754050198242
2024-01-12T16:43:56.691Z,1029.1987806183051
2024-01-12T16:47:18.702Z,1029.198256150735
2024-01-12T16:50:39.043Z,1029.1959178576078
2024-01-12T16:53:59.903Z,1029.1662519325284
2024-01-12T16:57:20.087Z,1029.181633401007
2024-01-12T17:02:46.287Z,1029.2096260302942
2024-01-12T17:06:06.850Z,1029.1926832790257
2024-01-12T17:13:23.313Z,1029.1270387626885
2024-01-12T17:18:33.019Z,1029.1291308993484
2024-01-12T17:21:55.018Z,1029.1190247163952
2024-01-12T17:25:15.462Z,1029.1400528532897
2024-01-12T17:28:35.412Z,1029.138654458713
2024-01-12T17:31:56.376Z,1029.1050656936006
2024-01-12T17:35:16.641Z,1029.0837231759685
2024-01-12T17:38:36.567Z,1029.0770191574202
2024-01-12T17:41:57.869Z,1029.091834663205
2024-01-12T17:45:59.090Z,1028.9818017695002
2024-01-12T17:49:19.473Z,1028.9409291555287
2024-01-12T17:52:41.271Z,1028.9055220796768
2024-01-12T17:57:03.728Z,1028.9142048444737
2024-01-12T18:00:24.052Z,1028.9147399856008
2024-01-12T18:03:45.073Z,1028.9088235350935
2024-01-12T18:07:06.507Z,1028.8976537589908
2024-01-12T18:10:26.997Z,1028.8961461131626
2024-01-12T18:16:34.717Z,1028.935874133823
2024-01-12T18:20:17.063Z,1028.940286925658
2024-01-12T18:23:37.665Z,1028.9341996241048
2024-01-12T18:26:59.066Z,1028.9019068248342
2024-01-12T18:30:20.253Z,1028.826323022176
2024-01-12T18:36:40.447Z,1028.7158675804883
2024-01-12T18:40:01.503Z,1028.6649217910012
2024-01-12T18:43:22.484Z,1028.6567349439763
2024-01-12T18:46:43.088Z,1028.6770357296934
2024-01-12T18:50:04.422Z,1028.7098292138478
2024-01-12T18:53:25.201Z,1028.6758662331301
2024-01-12T18:56:46.270Z,1028.662970490384
2024-01-12T19:00:06.917Z,1028.6490076623152
2024-01-12T19:03:29.473Z,1028.6184627941898
2024-01-12T19:06:50.229Z,1028.6164989726544
2024-01-12T19:10:10.427Z,1028.6518374358407
2024-01-12T19:13:30.486Z,1028.6301025011378
2024-01-12T19:17:48.286Z,1028.6681294400305
2024-01-12T19:21:08.711Z,1028.679891632664
2024-01-12T19:24:29.404Z,1028.6270849565349
2024-01-12T19:27:50.419Z,1028.5901396158488
2024-01-12T19:31:10.977Z,1028.550000158691
2024-01-12T19:34:31.811Z,1028.5212625751126
2024-01-12T19:37:52.533Z,1028.5189142156412
2024-01-12T19:41:13.017Z,1028.5229051045808
2024-01-12T19:44:33.371Z,1028.5249757971178
2024-01-12T19:47:53.941Z,1028.5014073726047
2024-01-12T19:51:14.827Z,1028.4979837545218
2024-01-12T19:54:35.526Z,1028.442408560166
2024-01-12T19:57:57.991Z,1028.3880466491605
2024-01-12T20:01:18.863Z,1028.3732099553313
2024-01-12T20:04:46.775Z,1028.3518355645879
2024-01-12T20:08:08.498Z,1028.3307442956186
2024-01-12T20:11:29.851Z,1028.3155879677765
2024-01-12T20:14:52.561Z,1028.2889727085133
2024-01-12T20:18:13.671Z,1028.2573502117864
2024-01-12T20:21:35.204Z,1028.199833387978
2024-01-12T20:24:57.044Z,1028.1802429848185
2024-01-12T20:28:18.072Z,1028.1741895641312
2024-01-12T20:32:35.078Z,1028.129098210908
2024-01-12T20:35:56.614Z,1028.1491394662135
2024-01-12T20:40:39.375Z,1028.166426585439
2024-01-12T20:44:00.820Z,1028.1552410712188
2024-01-12T20:47:21.142Z,1028.1410826215497
2024-01-12T20:50:42.294Z,1028.1311897202618
2024-01-12T20:54:02.879Z,1028.145070435018
2024-01-12T20:57:23.951Z,1028.1431214757574
2024-01-12T21:00:44.708Z,1028.1160433947723
2024-01-12T21:04:06.006Z,1028.0828507701042
2024-01-12T21:07:27.319Z,1028.0463105218134
2024-01-12T21:10:48.698Z,1027.960554294167
2024-01-12T21:14:09.857Z,1027.9164125575244
2024-01-12T21:17:30.822Z,1027.8753957536785
2024-01-12T21:26:56.659Z,1027.7734089866822
2024-01-12T21:30:17.885Z,1027.7007903585945
2024-01-12T21:35:47.750Z,1027.6918060010719
2024-01-12T21:39:08.862Z,1027.6409022246753
2024-01-12T21:42:34.674Z,1027.6319402670515
2024-01-12T21:45:55.684Z,1027.6118118542865
2024-01-12T21:49:16.668Z,1027.591643024625
2024-01-12T21:52:37.855Z,1027.6015942172553
2024-01-12T21:58:56.530Z,1027.5715445178973
2024-01-12T22:02:17.440Z,1027.546397544454
2024-01-12T22:05:38.036Z,1027.5079447519488
2024-01-12T22:08:59.373Z,1027.4791144173132
2024-01-12T22:15:16.122Z,1027.4222999980705
2024-01-12T22:18:36.883Z,1027.3895875588764
2024-01-12T22:23:55.330Z,1027.3039669008886
2024-01-12T22:27:26.856Z,1027.282880463177
